Oglasa — ITMG — position and weather

sailwx.info

Track history (hours):
 
Tides and Currents Weather Stations Pressure Air Temp Water Temp Dewpoint Dewpoint Depression Visibility Wind Speed Wind Dir Waves Ship Positions

Oglasa

Last reported at 2018-May-23 08:28 UTC. Time now 2018-May-23 08:56 UTC.
Position N 42°49' E 010°20'.

Length 91 m; draft 3.8 m.

Type: Ship. MMSI: 247046800.

Date/timePositionNaut miles runAvg speedWind from/ knotsBaromVisibWave heightAir tempDewpointWater temp
2018-May-23 08:28N 42°49' E 010°20'715.0
2018-May-23 07:59N 42°53' E 010°27'4 0.2
2018-May-22 09:53N 42°54' E 010°32'0 0.0
2018-May-21 16:51N 42°54' E 010°32'2 0.5
2018-May-21 13:01N 42°56' E 010°34'015.6
2018-May-21 13:00N 42°56' E 010°34'815.3
2018-May-21 12:30N 42°53' E 010°25'4 3.8
2018-May-21 11:29N 42°50' E 010°21'9 5.7
2018-May-21 09:52N 42°54' E 010°32'615.9
2018-May-21 09:30N 42°53' E 010°25'6 5.6
2018-May-21 08:29N 42°49' E 010°20'13 0.9
2018-May-20 17:58N 42°55' E 010°34'815.5
2018-May-20 17:29N 42°53' E 010°24'5 5.8
2018-May-20 16:34N 42°49' E 010°19'0 0.9
2018-May-20 16:30N 42°49' E 010°19'714.3
2018-May-20 16:01N 42°53' E 010°27'5 9.5
2018-May-20 15:29N 42°56' E 010°33'1 1.7
2018-May-20 15:00N 42°56' E 010°34'714.8
2018-May-20 14:30N 42°53' E 010°25'6 6.8
2018-May-20 13:41N 42°49' E 010°19'1 4.1
2018-May-20 13:30N 42°49' E 010°20'814.9
2018-May-20 13:00N 42°54' E 010°28'4 4.4
2018-May-20 11:59N 42°56' E 010°33'612.9
2018-May-20 11:30N 42°53' E 010°26'6 6.4
2018-May-20 10:30N 42°49' E 010°20'13 8.1
2018-May-20 08:58N 42°55' E 010°34'715.6
2018-May-20 08:31N 42°53' E 010°25'6 6.1
2018-May-20 07:35N 42°49' E 010°19'0 2.8
2018-May-20 07:31N 42°49' E 010°20'714.6
2018-May-20 07:00N 42°53' E 010°27'5 0.4
2018-May-19 18:07N 42°56' E 010°33'1 8.8
2018-May-19 18:01N 42°56' E 010°34'815.0
2018-May-19 17:31N 42°53' E 010°25'6 9.1
2018-May-19 16:54N 42°49' E 010°19'0 0.2
2018-May-19 16:30N 42°49' E 010°19'714.6
2018-May-19 16:00N 42°53' E 010°27'5 5.4
2018-May-19 15:07N 42°56' E 010°33'1 7.8
2018-May-19 15:00N 42°56' E 010°34'715.0
2018-May-19 14:30N 42°53' E 010°25'5 5.1
2018-May-19 13:26N 42°48' E 010°20'815.7
2018-May-19 12:57N 42°54' E 010°28'5 5.0
2018-May-19 11:57N 42°56' E 010°34'715.4
2018-May-19 11:31N 42°53' E 010°25'6 6.4
2018-May-19 10:34N 42°49' E 010°19'0 2.8
2018-May-19 10:30N 42°49' E 010°20'814.9
2018-May-19 10:00N 42°53' E 010°28'5 4.8
2018-May-19 08:56N 42°55' E 010°34'716.0
2018-May-19 08:30N 42°53' E 010°25'6 6.2
2018-May-19 07:33N 42°49' E 010°19'0 1.5
2018-May-19 07:30N 42°49' E 010°19'714.4
2018-May-19 07:00N 42°53' E 010°27'5 0.4
2018-May-18 18:04N 42°56' E 010°33'111.9
2018-May-18 18:01N 42°56' E 010°34'714.6
2018-May-18 17:30N 42°53' E 010°25'6 7.5
2018-May-18 16:45N 42°49' E 010°19'0 0.2
2018-May-18 16:31N 42°49' E 010°19'714.1
2018-May-18 15:59N 42°53' E 010°27'5 5.3
2018-May-18 15:06N 42°56' E 010°33'1 9.5
2018-May-18 15:00N 42°56' E 010°34'715.3
2018-May-18 14:31N 42°53' E 010°25'5 5.5
2018-May-18 13:31N 42°49' E 010°19'0 7.4
2018-May-18 13:29N 42°49' E 010°20'1015.3
2018-May-18 12:50N 42°54' E 010°31'3 3.1
2018-May-18 12:01N 42°56' E 010°33'110.1
2018-May-18 11:58N 42°56' E 010°34'715.7
2018-May-18 11:31N 42°53' E 010°25'6 6.1
2018-May-18 10:34N 42°49' E 010°19'0 1.9
2018-May-18 10:30N 42°49' E 010°20'814.8
2018-May-18 09:59N 42°54' E 010°28'5 4.8
2018-May-18 09:02N 42°56' E 010°33'013.6
2018-May-18 09:00N 42°56' E 010°34'714.1
2018-May-18 08:30N 42°53' E 010°25'6 6.2
2018-May-18 07:35N 42°49' E 010°19'0 4.6
2018-May-18 07:28N 42°48' E 010°20'1215.6
2018-May-18 06:42N 42°55' E 010°34'1 0.1
2018-May-17 16:51N 42°54' E 010°33'0 0.0
2018-May-16 12:53N 42°55' E 010°33'  
2018-May-13 14:52N 42°54' E 010°32'1 0.4
2018-May-13 12:43N 42°55' E 010°33'1 0.7
2018-May-13 11:52N 42°54' E 010°33'815.9
2018-May-13 11:23N 42°52' E 010°23'4 5.4
2018-May-13 10:37N 42°49' E 010°19'1 3.5
2018-May-13 10:28N 42°48' E 010°20'915.5
2018-May-13 09:55N 42°54' E 010°29'4 4.4
2018-May-13 09:00N 42°56' E 010°34'715.1
2018-May-13 08:30N 42°53' E 010°25'  
Track history (hours):
 
Tides and Currents Weather Stations Pressure Air Temp Water Temp Dewpoint Dewpoint Depression Visibility Wind Speed Wind Dir Waves Ship Positions

Oglasa

Last reported at 2018-May-23 08:28 UTC. Time now 2018-May-23 08:56 UTC.
Position N 42°49' E 010°20'.

Length 91 m; draft 3.8 m.

Type: Ship. MMSI: 247046800.

Date/timePositionNaut miles runAvg speedWind from/ knotsBaromVisibWave heightAir tempDewpointWater temp
2018-May-23 08:28N 42°49' E 010°20'715.0
2018-May-23 07:59N 42°53' E 010°27'4 0.2
2018-May-22 09:53N 42°54' E 010°32'0 0.0
2018-May-21 16:51N 42°54' E 010°32'2 0.5
2018-May-21 13:01N 42°56' E 010°34'015.6
2018-May-21 13:00N 42°56' E 010°34'815.3
2018-May-21 12:30N 42°53' E 010°25'4 3.8
2018-May-21 11:29N 42°50' E 010°21'9 5.7
2018-May-21 09:52N 42°54' E 010°32'615.9
2018-May-21 09:30N 42°53' E 010°25'6 5.6
2018-May-21 08:29N 42°49' E 010°20'13 0.9
2018-May-20 17:58N 42°55' E 010°34'815.5
2018-May-20 17:29N 42°53' E 010°24'5 5.8
2018-May-20 16:34N 42°49' E 010°19'0 0.9
2018-May-20 16:30N 42°49' E 010°19'714.3
2018-May-20 16:01N 42°53' E 010°27'5 9.5
2018-May-20 15:29N 42°56' E 010°33'1 1.7
2018-May-20 15:00N 42°56' E 010°34'714.8
2018-May-20 14:30N 42°53' E 010°25'6 6.8
2018-May-20 13:41N 42°49' E 010°19'1 4.1
2018-May-20 13:30N 42°49' E 010°20'814.9
2018-May-20 13:00N 42°54' E 010°28'4 4.4
2018-May-20 11:59N 42°56' E 010°33'612.9
2018-May-20 11:30N 42°53' E 010°26'6 6.4
2018-May-20 10:30N 42°49' E 010°20'13 8.1
2018-May-20 08:58N 42°55' E 010°34'715.6
2018-May-20 08:31N 42°53' E 010°25'6 6.1
2018-May-20 07:35N 42°49' E 010°19'0 2.8
2018-May-20 07:31N 42°49' E 010°20'714.6
2018-May-20 07:00N 42°53' E 010°27'5 0.4
2018-May-19 18:07N 42°56' E 010°33'1 8.8
2018-May-19 18:01N 42°56' E 010°34'815.0
2018-May-19 17:31N 42°53' E 010°25'6 9.1
2018-May-19 16:54N 42°49' E 010°19'0 0.2
2018-May-19 16:30N 42°49' E 010°19'714.6
2018-May-19 16:00N 42°53' E 010°27'5 5.4
2018-May-19 15:07N 42°56' E 010°33'1 7.8
2018-May-19 15:00N 42°56' E 010°34'715.0
2018-May-19 14:30N 42°53' E 010°25'5 5.1
2018-May-19 13:26N 42°48' E 010°20'815.7
2018-May-19 12:57N 42°54' E 010°28'5 5.0
2018-May-19 11:57N 42°56' E 010°34'715.4
2018-May-19 11:31N 42°53' E 010°25'6 6.4
2018-May-19 10:34N 42°49' E 010°19'0 2.8
2018-May-19 10:30N 42°49' E 010°20'814.9
2018-May-19 10:00N 42°53' E 010°28'5 4.8
2018-May-19 08:56N 42°55' E 010°34'716.0
2018-May-19 08:30N 42°53' E 010°25'6 6.2
2018-May-19 07:33N 42°49' E 010°19'0 1.5
2018-May-19 07:30N 42°49' E 010°19'714.4
2018-May-19 07:00N 42°53' E 010°27'5 0.4
2018-May-18 18:04N 42°56' E 010°33'111.9
2018-May-18 18:01N 42°56' E 010°34'714.6
2018-May-18 17:30N 42°53' E 010°25'6 7.5
2018-May-18 16:45N 42°49' E 010°19'0 0.2
2018-May-18 16:31N 42°49' E 010°19'714.1
2018-May-18 15:59N 42°53' E 010°27'5 5.3
2018-May-18 15:06N 42°56' E 010°33'1 9.5
2018-May-18 15:00N 42°56' E 010°34'715.3
2018-May-18 14:31N 42°53' E 010°25'5 5.5
2018-May-18 13:31N 42°49' E 010°19'0 7.4
2018-May-18 13:29N 42°49' E 010°20'1015.3
2018-May-18 12:50N 42°54' E 010°31'3 3.1
2018-May-18 12:01N 42°56' E 010°33'110.1
2018-May-18 11:58N 42°56' E 010°34'715.7
2018-May-18 11:31N 42°53' E 010°25'6 6.1
2018-May-18 10:34N 42°49' E 010°19'0 1.9
2018-May-18 10:30N 42°49' E 010°20'814.8
2018-May-18 09:59N 42°54' E 010°28'5 4.8
2018-May-18 09:02N 42°56' E 010°33'013.6
2018-May-18 09:00N 42°56' E 010°34'714.1
2018-May-18 08:30N 42°53' E 010°25'6 6.2
2018-May-18 07:35N 42°49' E 010°19'0 4.6
2018-May-18 07:28N 42°48' E 010°20'1215.6
2018-May-18 06:42N 42°55' E 010°34'1 0.1
2018-May-17 16:51N 42°54' E 010°33'0 0.0
2018-May-16 12:53N 42°55' E 010°33'  
2018-May-13 14:52N 42°54' E 010°32'1 0.4
2018-May-13 12:43N 42°55' E 010°33'1 0.7
2018-May-13 11:52N 42°54' E 010°33'815.9
2018-May-13 11:23N 42°52' E 010°23'4 5.4
2018-May-13 10:37N 42°49' E 010°19'1 3.5
2018-May-13 10:28N 42°48' E 010°20'915.5
2018-May-13 09:55N 42°54' E 010°29'4 4.4
2018-May-13 09:00N 42°56' E 010°34'715.1
2018-May-13 08:30N 42°53' E 010°25'  

Dump ship's entire track history